sensor_id;sensor_type;location;lat;lon;timestamp;temperature;humidity
44433;DHT22;30136;50.600;4.608;2022-07-23T00:00:29;27.90;77.40
44433;DHT22;30136;50.600;4.608;2022-07-23T00:01:31;28.90;77.80
44433;DHT22;30136;50.600;4.608;2022-07-23T00:02:32;28.00;77.10
44433;DHT22;30136;50.600;4.608;2022-07-23T00:03:32;28.00;77.20
44433;DHT22;30136;50.600;4.608;2022-07-23T00:04:33;28.10;77.40
44433;DHT22;30136;50.600;4.608;2022-07-23T00:05:34;28.80;77.60
44433;DHT22;30136;50.600;4.608;2022-07-23T00:06:35;28.70;77.50
44433;DHT22;30136;50.600;4.608;2022-07-23T00:07:37;29.00;77.80
44433;DHT22;30136;50.600;4.608;2022-07-23T00:08:38;27.90;76.80
44433;DHT22;30136;50.600;4.608;2022-07-23T00:09:39;28.80;77.90
44433;DHT22;30136;50.600;4.608;2022-07-23T00:10:40;29.00;77.60
44433;DHT22;30136;50.600;4.608;2022-07-23T00:11:41;28.30;77.10
44433;DHT22;30136;50.600;4.608;2022-07-23T00:12:42;28.10;76.80
44433;DHT22;30136;50.600;4.608;2022-07-23T00:13:43;28.60;77.30
44433;DHT22;30136;50.600;4.608;2022-07-23T00:14:44;28.50;77.20
44433;DHT22;30136;50.600;4.608;2022-07-23T00:15:45;28.10;77.50
44433;DHT22;30136;50.600;4.608;2022-07-23T00:16:46;29.10;78.40
44433;DHT22;30136;50.600;4.608;2022-07-23T00:17:47;28.00;76.80
44433;DHT22;30136;50.600;4.608;2022-07-23T00:18:48;28.20;77.60
44433;DHT22;30136;50.600;4.608;2022-07-23T00:19:49;28.90;77.50
44433;DHT22;30136;50.600;4.608;2022-07-23T00:20:50;29.00;77.60
44433;DHT22;30136;50.600;4.608;2022-07-23T00:21:51;29.20;77.60
44433;DHT22;30136;50.600;4.608;2022-07-23T00:22:54;28.60;77.70
44433;DHT22;30136;50.600;4.608;2022-07-23T00:23:56;28.00;76.50
44433;DHT22;30136;50.600;4.608;2022-07-23T00:24:56;28.90;77.80
44433;DHT22;30136;50.600;4.608;2022-07-23T00:25:57;28.10;76.70
44433;DHT22;30136;50.600;4.608;2022-07-23T00:26:58;28.10;76.60
44433;DHT22;30136;50.600;4.608;2022-07-23T00:28:00;28.10;76.60
44433;DHT22;30136;50.600;4.608;2022-07-23T00:29:01;29.40;77.50
44433;DHT22;30136;50.600;4.608;2022-07-23T00:30:03;28.90;77.20
44433;DHT22;30136;50.600;4.608;2022-07-23T00:31:04;28.10;76.50
44433;DHT22;30136;50.600;4.608;2022-07-23T00:32:05;28.30;76.90
44433;DHT22;30136;50.600;4.608;2022-07-23T00:33:07;28.10;76.60
44433;DHT22;30136;50.600;4.608;2022-07-23T00:34:08;28.10;76.30
44433;DHT22;30136;50.600;4.608;2022-07-23T00:35:09;29.00;77.20
44433;DHT22;30136;50.600;4.608;2022-07-23T00:36:10;28.10;76.50
44433;DHT22;30136;50.600;4.608;2022-07-23T00:37:11;28.60;76.80
44433;DHT22;30136;50.600;4.608;2022-07-23T00:38:12;28.80;77.00
44433;DHT22;30136;50.600;4.608;2022-07-23T00:39:13;28.70;77.00
44433;DHT22;30136;50.600;4.608;2022-07-23T00:40:14;28.90;77.10
44433;DHT22;30136;50.600;4.608;2022-07-23T00:41:15;28.90;77.00
44433;DHT22;30136;50.600;4.608;2022-07-23T00:42:17;28.80;76.90
44433;DHT22;30136;50.600;4.608;2022-07-23T00:43:20;28.40;76.70
44433;DHT22;30136;50.600;4.608;2022-07-23T00:44:24;28.10;76.00
44433;DHT22;30136;50.600;4.608;2022-07-23T00:45:26;28.10;76.00
44433;DHT22;30136;50.600;4.608;2022-07-23T00:46:27;27.90;76.00
44433;DHT22;30136;50.600;4.608;2022-07-23T00:47:28;28.40;76.40
44433;DHT22;30136;50.600;4.608;2022-07-23T00:48:29;27.90;75.90
44433;DHT22;30136;50.600;4.608;2022-07-23T00:49:30;28.00;76.40
44433;DHT22;30136;50.600;4.608;2022-07-23T00:50:31;29.10;76.80
44433;DHT22;30136;50.600;4.608;2022-07-23T00:51:32;28.90;76.60
44433;DHT22;30136;50.600;4.608;2022-07-23T00:52:34;28.70;76.50
44433;DHT22;30136;50.600;4.608;2022-07-23T00:53:36;28.40;76.00
44433;DHT22;30136;50.600;4.608;2022-07-23T00:54:36;29.00;76.80
44433;DHT22;30136;50.600;4.608;2022-07-23T00:55:38;28.10;76.20
44433;DHT22;30136;50.600;4.608;2022-07-23T00:56:39;28.30;76.00
44433;DHT22;30136;50.600;4.608;2022-07-23T00:57:42;28.90;76.30
44433;DHT22;30136;50.600;4.608;2022-07-23T00:58:43;28.90;76.40
44433;DHT22;30136;50.600;4.608;2022-07-23T00:59:44;28.00;75.70
44433;DHT22;30136;50.600;4.608;2022-07-23T01:00:45;28.10;75.70
44433;DHT22;30136;50.600;4.608;2022-07-23T01:01:46;28.00;75.70
44433;DHT22;30136;50.600;4.608;2022-07-23T01:02:49;29.20;76.70
44433;DHT22;30136;50.600;4.608;2022-07-23T01:03:50;28.80;76.30
44433;DHT22;30136;50.600;4.608;2022-07-23T01:04:51;28.60;76.20
44433;DHT22;30136;50.600;4.608;2022-07-23T01:05:53;28.90;76.30
44433;DHT22;30136;50.600;4.608;2022-07-23T01:06:54;28.40;75.70
44433;DHT22;30136;50.600;4.608;2022-07-23T01:07:55;28.60;76.00
44433;DHT22;30136;50.600;4.608;2022-07-23T01:08:56;28.00;75.60
44433;DHT22;30136;50.600;4.608;2022-07-23T01:09:57;28.90;76.50
44433;DHT22;30136;50.600;4.608;2022-07-23T01:10:59;28.90;76.10
44433;DHT22;30136;50.600;4.608;2022-07-23T01:12:00;27.90;75.40
44433;DHT22;30136;50.600;4.608;2022-07-23T01:13:07;28.30;75.70
44433;DHT22;30136;50.600;4.608;2022-07-23T01:14:14;28.10;75.40
44433;DHT22;30136;50.600;4.608;2022-07-23T01:15:16;29.10;76.10
44433;DHT22;30136;50.600;4.608;2022-07-23T01:16:17;28.90;76.50
44433;DHT22;30136;50.600;4.608;2022-07-23T01:17:18;29.30;76.40
44433;DHT22;30136;50.600;4.608;2022-07-23T01:18:19;27.80;75.30
44433;DHT22;30136;50.600;4.608;2022-07-23T01:19:20;29.00;76.20
44433;DHT22;30136;50.600;4.608;2022-07-23T01:20:21;28.90;76.30
44433;DHT22;30136;50.600;4.608;2022-07-23T01:21:22;27.90;75.60
44433;DHT22;30136;50.600;4.608;2022-07-23T01:22:28;28.30;75.80
44433;DHT22;30136;50.600;4.608;2022-07-23T01:23:30;27.90;75.50
44433;DHT22;30136;50.600;4.608;2022-07-23T01:24:33;28.00;75.70
44433;DHT22;30136;50.600;4.608;2022-07-23T01:25:48;28.40;76.10
44433;DHT22;30136;50.600;4.608;2022-07-23T01:26:56;28.10;75.70
44433;DHT22;30136;50.600;4.608;2022-07-23T01:27:57;28.80;76.80
44433;DHT22;30136;50.600;4.608;2022-07-23T01:28:58;28.00;75.70
44433;DHT22;30136;50.600;4.608;2022-07-23T01:30:00;28.50;76.10
44433;DHT22;30136;50.600;4.608;2022-07-23T01:31:02;28.90;76.60
44433;DHT22;30136;50.600;4.608;2022-07-23T01:32:07;28.90;76.60
44433;DHT22;30136;50.600;4.608;2022-07-23T01:33:08;28.00;75.90
44433;DHT22;30136;50.600;4.608;2022-07-23T01:34:10;29.20;76.80
44433;DHT22;30136;50.600;4.608;2022-07-23T01:35:11;28.20;75.90
44433;DHT22;30136;50.600;4.608;2022-07-23T01:36:13;28.90;76.50
44433;DHT22;30136;50.600;4.608;2022-07-23T01:37:14;28.00;75.90
44433;DHT22;30136;50.600;4.608;2022-07-23T01:38:15;28.90;76.50
44433;DHT22;30136;50.600;4.608;2022-07-23T01:39:17;28.80;76.40
44433;DHT22;30136;50.600;4.608;2022-07-23T01:40:18;29.00;76.50
44433;DHT22;30136;50.600;4.608;2022-07-23T01:41:19;28.70;76.30
44433;DHT22;30136;50.600;4.608;2022-07-23T01:42:20;28.90;76.40
44433;DHT22;30136;50.600;4.608;2022-07-23T01:43:21;28.90;76.40
44433;DHT22;30136;50.600;4.608;2022-07-23T01:44:22;27.90;75.60
44433;DHT22;30136;50.600;4.608;2022-07-23T01:45:23;28.00;75.70
44433;DHT22;30136;50.600;4.608;2022-07-23T01:46:26;28.60;76.10
44433;DHT22;30136;50.600;4.608;2022-07-23T01:47:27;29.30;76.70
44433;DHT22;30136;50.600;4.608;2022-07-23T01:48:30;28.50;75.90
44433;DHT22;30136;50.600;4.608;2022-07-23T01:49:49;28.80;76.00
44433;DHT22;30136;50.600;4.608;2022-07-23T01:50:50;28.80;76.60
44433;DHT22;30136;50.600;4.608;2022-07-23T01:52:10;28.10;75.40
44433;DHT22;30136;50.600;4.608;2022-07-23T01:53:20;29.20;76.00
44433;DHT22;30136;50.600;4.608;2022-07-23T01:54:22;28.00;74.70
44433;DHT22;30136;50.600;4.608;2022-07-23T01:55:23;28.00;75.00
44433;DHT22;30136;50.600;4.608;2022-07-23T01:56:24;28.00;75.00
44433;DHT22;30136;50.600;4.608;2022-07-23T01:57:25;28.40;75.30
44433;DHT22;30136;50.600;4.608;2022-07-23T01:58:27;27.80;74.70
44433;DHT22;30136;50.600;4.608;2022-07-23T01:59:28;28.40;74.80
44433;DHT22;30136;50.600;4.608;2022-07-23T02:00:29;27.90;74.60
44433;DHT22;30136;50.600;4.608;2022-07-23T02:01:30;28.30;75.00
44433;DHT22;30136;50.600;4.608;2022-07-23T02:02:32;27.80;74.60
44433;DHT22;30136;50.600;4.608;2022-07-23T02:03:33;27.90;74.80
44433;DHT22;30136;50.600;4.608;2022-07-23T02:04:34;28.90;75.50
44433;DHT22;30136;50.600;4.608;2022-07-23T02:05:37;29.10;75.90
44433;DHT22;30136;50.600;4.608;2022-07-23T02:06:38;28.00;75.10
44433;DHT22;30136;50.600;4.608;2022-07-23T02:07:39;28.00;75.50
44433;DHT22;30136;50.600;4.608;2022-07-23T02:08:40;28.40;75.50
44433;DHT22;30136;50.600;4.608;2022-07-23T02:09:41;28.80;76.30
44433;DHT22;30136;50.600;4.608;2022-07-23T02:10:42;28.60;75.50
44433;DHT22;30136;50.600;4.608;2022-07-23T02:11:44;28.90;75.90
44433;DHT22;30136;50.600;4.608;2022-07-23T02:12:45;28.50;75.30
44433;DHT22;30136;50.600;4.608;2022-07-23T02:13:46;28.10;75.20
44433;DHT22;30136;50.600;4.608;2022-07-23T02:14:47;28.00;75.30
44433;DHT22;30136;50.600;4.608;2022-07-23T02:15:48;27.90;75.00
44433;DHT22;30136;50.600;4.608;2022-07-23T02:16:49;28.50;75.40
44433;DHT22;30136;50.600;4.608;2022-07-23T02:17:50;27.90;75.80
44433;DHT22;30136;50.600;4.608;2022-07-23T02:18:51;28.80;76.10
44433;DHT22;30136;50.600;4.608;2022-07-23T02:19:52;28.80;75.50
44433;DHT22;30136;50.600;4.608;2022-07-23T02:20:53;28.00;74.50
44433;DHT22;30136;50.600;4.608;2022-07-23T02:21:53;28.20;75.30
44433;DHT22;30136;50.600;4.608;2022-07-23T02:22:55;27.70;74.20
44433;DHT22;30136;50.600;4.608;2022-07-23T02:23:56;28.80;75.20
44433;DHT22;30136;50.600;4.608;2022-07-23T02:24:57;27.80;73.40
44433;DHT22;30136;50.600;4.608;2022-07-23T02:25:58;29.00;73.90
44433;DHT22;30136;50.600;4.608;2022-07-23T02:26:59;28.80;72.80
44433;DHT22;30136;50.600;4.608;2022-07-23T02:28:00;28.80;72.70
44433;DHT22;30136;50.600;4.608;2022-07-23T02:29:02;28.00;72.40
44433;DHT22;30136;50.600;4.608;2022-07-23T02:30:05;27.90;75.10
44433;DHT22;30136;50.600;4.608;2022-07-23T02:31:08;28.00;74.20
44433;DHT22;30136;50.600;4.608;2022-07-23T02:32:09;27.70;72.20
44433;DHT22;30136;50.600;4.608;2022-07-23T02:33:10;28.00;72.00
44433;DHT22;30136;50.600;4.608;2022-07-23T02:34:11;28.20;71.50
44433;DHT22;30136;50.600;4.608;2022-07-23T02:35:12;28.10;71.50
44433;DHT22;30136;50.600;4.608;2022-07-23T02:36:13;29.10;71.50
44433;DHT22;30136;50.600;4.608;2022-07-23T02:37:15;28.70;71.20
44433;DHT22;30136;50.600;4.608;2022-07-23T02:38:16;28.30;70.80
44433;DHT22;30136;50.600;4.608;2022-07-23T02:39:17;28.00;71.30
44433;DHT22;30136;50.600;4.608;2022-07-23T02:40:18;28.80;71.40
44433;DHT22;30136;50.600;4.608;2022-07-23T02:41:19;28.90;71.70
44433;DHT22;30136;50.600;4.608;2022-07-23T02:42:20;27.90;71.10
44433;DHT22;30136;50.600;4.608;2022-07-23T02:43:23;28.30;71.50
44433;DHT22;30136;50.600;4.608;2022-07-23T02:44:23;29.10;72.10
44433;DHT22;30136;50.600;4.608;2022-07-23T02:45:26;28.50;71.70
44433;DHT22;30136;50.600;4.608;2022-07-23T02:46:28;28.50;71.70
44433;DHT22;30136;50.600;4.608;2022-07-23T02:47:30;27.90;72.30
44433;DHT22;30136;50.600;4.608;2022-07-23T02:48:34;29.10;73.20
44433;DHT22;30136;50.600;4.608;2022-07-23T02:49:35;28.00;72.20
44433;DHT22;30136;50.600;4.608;2022-07-23T02:50:38;28.90;72.80
44433;DHT22;30136;50.600;4.608;2022-07-23T02:51:41;28.00;72.20
44433;DHT22;30136;50.600;4.608;2022-07-23T02:52:42;29.10;73.00
44433;DHT22;30136;50.600;4.608;2022-07-23T02:53:44;28.20;72.10
44433;DHT22;30136;50.600;4.608;2022-07-23T02:54:44;28.80;72.50
44433;DHT22;30136;50.600;4.608;2022-07-23T02:55:49;28.10;71.90
44433;DHT22;30136;50.600;4.608;2022-07-23T02:56:50;27.70;71.70
44433;DHT22;30136;50.600;4.608;2022-07-23T02:57:51;28.70;72.40
44433;DHT22;30136;50.600;4.608;2022-07-23T02:58:52;28.00;71.70
44433;DHT22;30136;50.600;4.608;2022-07-23T02:59:55;28.30;72.00
44433;DHT22;30136;50.600;4.608;2022-07-23T03:00:56;28.70;72.30
44433;DHT22;30136;50.600;4.608;2022-07-23T03:01:59;27.90;71.60
44433;DHT22;30136;50.600;4.608;2022-07-23T03:03:02;28.10;71.80
44433;DHT22;30136;50.600;4.608;2022-07-23T03:04:03;27.80;71.30
44433;DHT22;30136;50.600;4.608;2022-07-23T03:05:05;28.00;71.40
44433;DHT22;30136;50.600;4.608;2022-07-23T03:06:08;28.60;71.70
44433;DHT22;30136;50.600;4.608;2022-07-23T03:07:09;28.80;72.10
44433;DHT22;30136;50.600;4.608;2022-07-23T03:08:10;28.70;72.10
44433;DHT22;30136;50.600;4.608;2022-07-23T03:09:14;27.90;71.50
44433;DHT22;30136;50.600;4.608;2022-07-23T03:10:16;29.10;72.40
44433;DHT22;30136;50.600;4.608;2022-07-23T03:11:18;28.80;72.20
44433;DHT22;30136;50.600;4.608;2022-07-23T03:12:20;28.00;71.40
44433;DHT22;30136;50.600;4.608;2022-07-23T03:13:21;27.80;71.60
44433;DHT22;30136;50.600;4.608;2022-07-23T03:14:22;27.90;72.00
44433;DHT22;30136;50.600;4.608;2022-07-23T03:15:24;28.70;72.10
44433;DHT22;30136;50.600;4.608;2022-07-23T03:16:25;28.80;72.30
44433;DHT22;30136;50.600;4.608;2022-07-23T03:17:26;28.40;72.00
44433;DHT22;30136;50.600;4.608;2022-07-23T03:18:27;28.70;72.20
44433;DHT22;30136;50.600;4.608;2022-07-23T03:19:28;29.00;72.50
44433;DHT22;30136;50.600;4.608;2022-07-23T03:20:29;28.70;72.40
44433;DHT22;30136;50.600;4.608;2022-07-23T03:21:30;28.60;72.30
44433;DHT22;30136;50.600;4.608;2022-07-23T03:22:31;28.70;72.30
44433;DHT22;30136;50.600;4.608;2022-07-23T03:23:32;28.90;72.40
44433;DHT22;30136;50.600;4.608;2022-07-23T03:24:33;27.70;71.40
44433;DHT22;30136;50.600;4.608;2022-07-23T03:25:53;28.80;72.30
44433;DHT22;30136;50.600;4.608;2022-07-23T03:26:54;27.70;71.20
44433;DHT22;30136;50.600;4.608;2022-07-23T03:27:55;27.70;71.70
44433;DHT22;30136;50.600;4.608;2022-07-23T03:28:56;28.40;71.90
44433;DHT22;30136;50.600;4.608;2022-07-23T03:29:58;28.60;72.00
44433;DHT22;30136;50.600;4.608;2022-07-23T03:31:00;28.00;71.20
44433;DHT22;30136;50.600;4.608;2022-07-23T03:32:00;27.90;71.40
44433;DHT22;30136;50.600;4.608;2022-07-23T03:33:03;28.10;71.60
44433;DHT22;30136;50.600;4.608;2022-07-23T03:34:04;27.90;72.00
44433;DHT22;30136;50.600;4.608;2022-07-23T03:35:05;28.60;71.90
44433;DHT22;30136;50.600;4.608;2022-07-23T03:36:07;27.80;71.20
44433;DHT22;30136;50.600;4.608;2022-07-23T03:37:13;28.00;71.30
44433;DHT22;30136;50.600;4.608;2022-07-23T03:38:14;29.00;72.20
44433;DHT22;30136;50.600;4.608;2022-07-23T03:39:16;28.60;71.80
44433;DHT22;30136;50.600;4.608;2022-07-23T03:40:18;28.30;71.60
44433;DHT22;30136;50.600;4.608;2022-07-23T03:41:19;27.90;71.30
44433;DHT22;30136;50.600;4.608;2022-07-23T03:42:21;29.00;72.00
44433;DHT22;30136;50.600;4.608;2022-07-23T03:43:21;27.80;71.40
44433;DHT22;30136;50.600;4.608;2022-07-23T03:44:25;27.80;71.30
44433;DHT22;30136;50.600;4.608;2022-07-23T03:45:26;27.80;71.30
44433;DHT22;30136;50.600;4.608;2022-07-23T03:46:27;27.80;71.30
44433;DHT22;30136;50.600;4.608;2022-07-23T03:47:28;28.90;72.40
44433;DHT22;30136;50.600;4.608;2022-07-23T03:48:29;27.80;71.40
44433;DHT22;30136;50.600;4.608;2022-07-23T03:49:30;28.30;72.10
44433;DHT22;30136;50.600;4.608;2022-07-23T03:50:31;28.30;71.70
44433;DHT22;30136;50.600;4.608;2022-07-23T03:51:32;27.80;72.00
44433;DHT22;30136;50.600;4.608;2022-07-23T03:52:33;27.90;71.60
44433;DHT22;30136;50.600;4.608;2022-07-23T03:53:34;28.70;72.20
44433;DHT22;30136;50.600;4.608;2022-07-23T03:54:35;29.00;72.50
44433;DHT22;30136;50.600;4.608;2022-07-23T03:55:36;27.60;71.20
44433;DHT22;30136;50.600;4.608;2022-07-23T03:56:37;28.10;71.70
44433;DHT22;30136;50.600;4.608;2022-07-23T03:57:38;28.80;72.30
44433;DHT22;30136;50.600;4.608;2022-07-23T03:58:39;27.90;71.50
44433;DHT22;30136;50.600;4.608;2022-07-23T03:59:40;28.60;72.00
44433;DHT22;30136;50.600;4.608;2022-07-23T04:00:41;28.10;71.60
44433;DHT22;30136;50.600;4.608;2022-07-23T04:01:42;28.10;71.60
44433;DHT22;30136;50.600;4.608;2022-07-23T04:02:43;28.60;72.00
44433;DHT22;30136;50.600;4.608;2022-07-23T04:03:46;28.10;71.20
44433;DHT22;30136;50.600;4.608;2022-07-23T04:04:47;27.70;70.90
44433;DHT22;30136;50.600;4.608;2022-07-23T04:05:48;28.90;71.80
44433;DHT22;30136;50.600;4.608;2022-07-23T04:06:49;28.60;71.50
44433;DHT22;30136;50.600;4.608;2022-07-23T04:07:50;28.50;71.50
44433;DHT22;30136;50.600;4.608;2022-07-23T04:08:52;27.60;70.80
44433;DHT22;30136;50.600;4.608;2022-07-23T04:09:53;27.60;70.80
44433;DHT22;30136;50.600;4.608;2022-07-23T04:10:55;28.80;72.50
44433;DHT22;30136;50.600;4.608;2022-07-23T04:11:56;28.90;71.70
44433;DHT22;30136;50.600;4.608;2022-07-23T04:12:57;28.80;72.00
44433;DHT22;30136;50.600;4.608;2022-07-23T04:13:58;28.90;71.70
44433;DHT22;30136;50.600;4.608;2022-07-23T04:14:59;28.40;71.20
44433;DHT22;30136;50.600;4.608;2022-07-23T04:16:00;28.60;71.40
44433;DHT22;30136;50.600;4.608;2022-07-23T04:17:01;29.00;71.80
44433;DHT22;30136;50.600;4.608;2022-07-23T04:18:02;27.80;71.50
44433;DHT22;30136;50.600;4.608;2022-07-23T04:19:12;27.80;70.80
44433;DHT22;30136;50.600;4.608;2022-07-23T04:20:34;28.60;71.40
44433;DHT22;30136;50.600;4.608;2022-07-23T04:21:37;28.20;71.00
44433;DHT22;30136;50.600;4.608;2022-07-23T04:22:37;27.70;70.70
44433;DHT22;30136;50.600;4.608;2022-07-23T04:23:39;27.80;70.80
44433;DHT22;30136;50.600;4.608;2022-07-23T04:24:40;28.30;71.10
44433;DHT22;30136;50.600;4.608;2022-07-23T04:25:43;28.30;71.20
44433;DHT22;30136;50.600;4.608;2022-07-23T04:26:45;27.80;70.80
44433;DHT22;30136;50.600;4.608;2022-07-23T04:27:46;27.60;70.40
44433;DHT22;30136;50.600;4.608;2022-07-23T04:28:47;28.60;71.90
44433;DHT22;30136;50.600;4.608;2022-07-23T04:29:48;27.70;70.70
44433;DHT22;30136;50.600;4.608;2022-07-23T04:30:49;28.70;71.70
44433;DHT22;30136;50.600;4.608;2022-07-23T04:31:51;27.80;70.90
44433;DHT22;30136;50.600;4.608;2022-07-23T04:32:52;27.60;70.70
44433;DHT22;30136;50.600;4.608;2022-07-23T04:33:58;27.80;70.90
44433;DHT22;30136;50.600;4.608;2022-07-23T04:34:59;27.70;70.80
44433;DHT22;30136;50.600;4.608;2022-07-23T04:36:00;28.10;71.20
44433;DHT22;30136;50.600;4.608;2022-07-23T04:37:01;28.90;71.80
44433;DHT22;30136;50.600;4.608;2022-07-23T04:38:05;28.40;71.40
44433;DHT22;30136;50.600;4.608;2022-07-23T04:39:06;28.90;71.80
44433;DHT22;30136;50.600;4.608;2022-07-23T04:40:07;28.10;71.10
44433;DHT22;30136;50.600;4.608;2022-07-23T04:41:10;28.80;71.70
44433;DHT22;30136;50.600;4.608;2022-07-23T04:42:12;28.90;71.80
44433;DHT22;30136;50.600;4.608;2022-07-23T04:43:13;27.70;70.80
44433;DHT22;30136;50.600;4.608;2022-07-23T04:44:19;27.80;71.10
44433;DHT22;30136;50.600;4.608;2022-07-23T04:45:22;27.70;70.90
44433;DHT22;30136;50.600;4.608;2022-07-23T04:46:26;28.60;71.50
44433;DHT22;30136;50.600;4.608;2022-07-23T04:47:30;28.60;71.40
44433;DHT22;30136;50.600;4.608;2022-07-23T04:48:32;28.30;71.20
44433;DHT22;30136;50.600;4.608;2022-07-23T04:49:41;28.60;71.50
44433;DHT22;30136;50.600;4.608;2022-07-23T04:50:43;27.60;70.80
44433;DHT22;30136;50.600;4.608;2022-07-23T04:51:57;27.80;71.20
44433;DHT22;30136;50.600;4.608;2022-07-23T04:52:57;28.60;71.70
44433;DHT22;30136;50.600;4.608;2022-07-23T04:53:59;27.80;71.10
44433;DHT22;30136;50.600;4.608;2022-07-23T04:54:59;28.20;71.40
44433;DHT22;30136;50.600;4.608;2022-07-23T04:56:00;28.70;71.90
44433;DHT22;30136;50.600;4.608;2022-07-23T04:57:04;27.70;71.00
44433;DHT22;30136;50.600;4.608;2022-07-23T04:58:05;27.90;71.10
44433;DHT22;30136;50.600;4.608;2022-07-23T04:59:06;27.90;71.20
44433;DHT22;30136;50.600;4.608;2022-07-23T05:00:08;27.70;71.10
44433;DHT22;30136;50.600;4.608;2022-07-23T05:01:09;27.70;70.80
44433;DHT22;30136;50.600;4.608;2022-07-23T05:02:11;28.90;72.50
44433;DHT22;30136;50.600;4.608;2022-07-23T05:03:12;27.70;71.80
44433;DHT22;30136;50.600;4.608;2022-07-23T05:04:13;27.80;71.80
44433;DHT22;30136;50.600;4.608;2022-07-23T05:05:15;28.00;72.20
44433;DHT22;30136;50.600;4.608;2022-07-23T05:06:18;28.30;72.40
44433;DHT22;30136;50.600;4.608;2022-07-23T05:07:19;27.60;71.70
44433;DHT22;30136;50.600;4.608;2022-07-23T05:08:20;27.70;72.10
44433;DHT22;30136;50.600;4.608;2022-07-23T05:09:25;28.30;72.20
44433;DHT22;30136;50.600;4.608;2022-07-23T05:10:26;27.80;71.60
44433;DHT22;30136;50.600;4.608;2022-07-23T05:11:27;28.90;72.50
44433;DHT22;30136;50.600;4.608;2022-07-23T05:12:28;28.70;72.40
44433;DHT22;30136;50.600;4.608;2022-07-23T05:13:30;27.70;71.60
44433;DHT22;30136;50.600;4.608;2022-07-23T05:14:31;28.20;71.90
44433;DHT22;30136;50.600;4.608;2022-07-23T05:15:33;28.60;72.30
44433;DHT22;30136;50.600;4.608;2022-07-23T05:16:34;27.70;71.60
44433;DHT22;30136;50.600;4.608;2022-07-23T05:17:41;27.80;71.80
44433;DHT22;30136;50.600;4.608;2022-07-23T05:18:47;28.80;72.50
44433;DHT22;30136;50.600;4.608;2022-07-23T05:19:48;27.70;71.70
44433;DHT22;30136;50.600;4.608;2022-07-23T05:20:48;27.70;71.80
44433;DHT22;30136;50.600;4.608;2022-07-23T05:21:53;28.70;72.60
44433;DHT22;30136;50.600;4.608;2022-07-23T05:22:55;28.50;72.30
44433;DHT22;30136;50.600;4.608;2022-07-23T05:23:56;28.30;72.30
44433;DHT22;30136;50.600;4.608;2022-07-23T05:24:57;28.90;72.80
44433;DHT22;30136;50.600;4.608;2022-07-23T05:25:58;28.50;72.60
44433;DHT22;30136;50.600;4.608;2022-07-23T05:27:01;27.70;71.90
44433;DHT22;30136;50.600;4.608;2022-07-23T05:28:02;27.50;72.70
44433;DHT22;30136;50.600;4.608;2022-07-23T05:29:03;27.70;72.00
44433;DHT22;30136;50.600;4.608;2022-07-23T05:30:04;27.60;71.80
44433;DHT22;30136;50.600;4.608;2022-07-23T05:31:09;28.70;72.70
44433;DHT22;30136;50.600;4.608;2022-07-23T05:32:10;27.50;71.80
44433;DHT22;30136;50.600;4.608;2022-07-23T05:33:14;27.60;71.90
44433;DHT22;30136;50.600;4.608;2022-07-23T05:34:16;28.60;72.80
44433;DHT22;30136;50.600;4.608;2022-07-23T05:35:17;28.70;72.90
44433;DHT22;30136;50.600;4.608;2022-07-23T05:36:36;28.50;72.80
44433;DHT22;30136;50.600;4.608;2022-07-23T05:37:38;27.70;72.10
44433;DHT22;30136;50.600;4.608;2022-07-23T05:38:39;27.60;72.10
44433;DHT22;30136;50.600;4.608;2022-07-23T05:39:40;27.50;72.10
44433;DHT22;30136;50.600;4.608;2022-07-23T05:40:41;27.70;72.30
44433;DHT22;30136;50.600;4.608;2022-07-23T05:41:42;28.10;72.70
44433;DHT22;30136;50.600;4.608;2022-07-23T05:42:44;27.50;72.20
44433;DHT22;30136;50.600;4.608;2022-07-23T05:43:45;27.70;72.50
44433;DHT22;30136;50.600;4.608;2022-07-23T05:44:46;28.90;73.40
44433;DHT22;30136;50.600;4.608;2022-07-23T05:45:47;28.10;72.80
44433;DHT22;30136;50.600;4.608;2022-07-23T05:46:48;27.60;73.00
44433;DHT22;30136;50.600;4.608;2022-07-23T05:47:54;28.80;73.40
44433;DHT22;30136;50.600;4.608;2022-07-23T05:49:01;28.20;73.00
44433;DHT22;30136;50.600;4.608;2022-07-23T05:50:22;28.50;73.30
44433;DHT22;30136;50.600;4.608;2022-07-23T05:51:30;28.50;73.40
44433;DHT22;30136;50.600;4.608;2022-07-23T05:52:31;27.70;72.70
44433;DHT22;30136;50.600;4.608;2022-07-23T05:53:55;28.60;73.50
44433;DHT22;30136;50.600;4.608;2022-07-23T05:55:00;27.70;72.80
44433;DHT22;30136;50.600;4.608;2022-07-23T05:56:01;27.50;73.10
44433;DHT22;30136;50.600;4.608;2022-07-23T05:57:04;27.80;73.10
44433;DHT22;30136;50.600;4.608;2022-07-23T05:58:05;28.70;74.30
44433;DHT22;30136;50.600;4.608;2022-07-23T05:59:06;28.80;73.90
44433;DHT22;30136;50.600;4.608;2022-07-23T06:00:09;27.70;73.00
44433;DHT22;30136;50.600;4.608;2022-07-23T06:01:18;28.50;73.50
44433;DHT22;30136;50.600;4.608;2022-07-23T06:02:34;27.60;73.10
44433;DHT22;30136;50.600;4.608;2022-07-23T06:03:35;27.70;73.20
44433;DHT22;30136;50.600;4.608;2022-07-23T06:04:36;27.70;73.40
44433;DHT22;30136;50.600;4.608;2022-07-23T06:05:56;28.50;73.90
44433;DHT22;30136;50.600;4.608;2022-07-23T06:06:56;27.50;73.10
44433;DHT22;30136;50.600;4.608;2022-07-23T06:07:57;27.70;73.60
44433;DHT22;30136;50.600;4.608;2022-07-23T06:08:59;27.70;73.30
44433;DHT22;30136;50.600;4.608;2022-07-23T06:10:01;28.40;73.90
44433;DHT22;30136;50.600;4.608;2022-07-23T06:11:02;27.60;73.40
44433;DHT22;30136;50.600;4.608;2022-07-23T06:12:03;28.80;74.30
44433;DHT22;30136;50.600;4.608;2022-07-23T06:13:05;27.70;73.50
44433;DHT22;30136;50.600;4.608;2022-07-23T06:14:06;28.10;73.90
44433;DHT22;30136;50.600;4.608;2022-07-23T06:15:21;27.80;73.60
44433;DHT22;30136;50.600;4.608;2022-07-23T06:16:22;27.70;73.50
44433;DHT22;30136;50.600;4.608;2022-07-23T06:17:23;28.00;73.90
44433;DHT22;30136;50.600;4.608;2022-07-23T06:18:24;28.40;74.10
44433;DHT22;30136;50.600;4.608;2022-07-23T06:19:25;27.70;73.60
44433;DHT22;30136;50.600;4.608;2022-07-23T06:20:27;28.70;74.40
44433;DHT22;30136;50.600;4.608;2022-07-23T06:21:27;28.30;74.20
44433;DHT22;30136;50.600;4.608;2022-07-23T06:22:31;27.70;73.70
44433;DHT22;30136;50.600;4.608;2022-07-23T06:23:32;27.50;73.60
44433;DHT22;30136;50.600;4.608;2022-07-23T06:24:33;27.50;73.90
44433;DHT22;30136;50.600;4.608;2022-07-23T06:25:34;28.70;74.60
44433;DHT22;30136;50.600;4.608;2022-07-23T06:26:35;28.40;74.90
44433;DHT22;30136;50.600;4.608;2022-07-23T06:27:36;27.50;73.80
44433;DHT22;30136;50.600;4.608;2022-07-23T06:28:37;28.20;74.20
44433;DHT22;30136;50.600;4.608;2022-07-23T06:29:38;28.50;75.00
44433;DHT22;30136;50.600;4.608;2022-07-23T06:30:41;28.90;74.90
44433;DHT22;30136;50.600;4.608;2022-07-23T06:31:42;27.70;73.80
44433;DHT22;30136;50.600;4.608;2022-07-23T06:32:43;28.50;74.60